Time;durP1;ratioP1;P1;durP2;ratioP2;P2;SDS_P1;SDS_P2;PMS_P1;PMS_P2;Temp;Humidity;BMP_temperature;BMP_pressure;BME280_temperature;BME280_humidity;BME280_pressure;Samples;Min_cycle;Max_cycle;Signal;HPM_P1;HPM_P2
2022/09/12 00:00:30;;;;;;;6.70;5.30;;;14.10;99.90;;;;;;5006000;28;20022;-73
2022/09/12 00:02:57;;;;;;;8.90;5.53;;;14.10;99.90;;;;;;5006676;28;20033;-73
2022/09/12 00:05:22;;;;;;;6.90;5.25;;;14.00;99.90;;;;;;5007105;28;20072;-73
2022/09/12 00:07:48;;;;;;;12.70;5.82;;;14.10;99.90;;;;;;5006191;28;20482;-73
2022/09/12 00:10:14;;;;;;;7.97;5.80;;;14.10;99.90;;;;;;5007205;28;20475;-72
2022/09/12 00:12:40;;;;;;;15.38;6.18;;;14.00;99.90;;;;;;5003204;28;20459;-73
2022/09/12 00:15:07;;;;;;;8.05;6.25;;;14.00;99.90;;;;;;5005521;28;20065;-73
2022/09/12 00:17:37;;;;;;;8.93;6.40;;;14.00;99.90;;;;;;5006405;28;20033;-72
2022/09/12 00:20:08;;;;;;;9.65;6.75;;;14.00;99.90;;;;;;5004295;28;20040;-73
2022/09/12 00:22:34;;;;;;;8.15;6.00;;;13.90;99.90;;;;;;5004852;28;20076;-73
2022/09/12 00:25:01;;;;;;;10.70;6.70;;;13.90;99.90;;;;;;5006213;28;20014;-72
2022/09/12 00:27:27;;;;;;;7.80;5.93;;;13.80;99.90;;;;;;5000881;28;20084;-73
2022/09/12 00:29:53;;;;;;;9.13;6.18;;;13.80;99.90;;;;;;5006359;28;20383;-73
2022/09/12 00:32:19;;;;;;;10.95;6.00;;;13.80;99.90;;;;;;5003178;28;20099;-73
2022/09/12 00:34:44;;;;;;;9.38;6.40;;;13.80;99.90;;;;;;5008251;28;20026;-73
2022/09/12 00:37:10;;;;;;;11.35;7.13;;;13.70;99.90;;;;;;5008208;28;20029;-73
2022/09/12 00:39:36;;;;;;;9.98;6.80;;;13.70;99.90;;;;;;5004800;28;20041;-73
2022/09/12 00:42:01;;;;;;;10.23;6.30;;;13.70;99.90;;;;;;5012513;28;20029;-72
2022/09/12 00:44:27;;;;;;;9.13;5.82;;;13.70;99.90;;;;;;5025434;28;20109;-72
2022/09/12 00:47:15;;;;;;;9.55;6.60;;;13.60;99.90;;;;;;5010285;28;20503;-72
2022/09/12 00:49:53;;;;;;;8.02;5.82;;;13.60;99.90;;;;;;5022649;28;20099;-72
2022/09/12 00:52:22;;;;;;;11.63;6.55;;;13.60;99.90;;;;;;5008912;28;20030;-72
2022/09/12 00:54:48;;;;;;;9.05;6.63;;;13.60;99.90;;;;;;5008821;28;20073;-72
2022/09/12 00:57:15;;;;;;;10.98;7.40;;;13.50;99.90;;;;;;5028114;28;20057;-72
2022/09/12 00:59:52;;;;;;;11.45;6.72;;;13.50;99.90;;;;;;5009969;28;20072;-72
2022/09/12 01:02:18;;;;;;;10.05;6.38;;;13.50;99.90;;;;;;5008074;28;20490;-71
2022/09/12 01:04:44;;;;;;;13.35;7.63;;;13.50;99.90;;;;;;5026566;28;20125;-72
2022/09/12 01:07:11;;;;;;;11.55;8.02;;;13.50;99.90;;;;;;5029703;28;20109;-73
2022/09/12 01:09:38;;;;;;;10.88;8.05;;;13.40;99.90;;;;;;5003971;28;20037;-73
2022/09/12 01:12:05;;;;;;;9.60;7.57;;;13.40;99.90;;;;;;5008470;28;20033;-73
2022/09/12 01:14:31;;;;;;;9.63;7.00;;;13.40;99.90;;;;;;5008402;28;20030;-74
2022/09/12 01:16:57;;;;;;;14.32;8.00;;;13.30;99.90;;;;;;5012879;28;20041;-74
2022/09/12 01:19:54;;;;;;;14.75;8.88;;;13.30;99.90;;;;;;5009062;28;20030;-74
2022/09/12 01:22:23;;;;;;;12.75;7.68;;;13.30;99.90;;;;;;5003731;28;20037;-74
2022/09/12 01:25:00;;;;;;;9.95;7.47;;;13.30;99.90;;;;;;5025037;28;20030;-74
2022/09/12 01:27:36;;;;;;;15.25;8.18;;;13.30;99.90;;;;;;5007502;28;20021;-74
2022/09/12 01:30:04;;;;;;;11.57;7.95;;;13.20;99.90;;;;;;5008391;28;20034;-74
2022/09/12 01:32:48;;;;;;;11.68;8.30;;;13.20;99.90;;;;;;5024327;28;20057;-74
2022/09/12 01:35:24;;;;;;;11.30;8.73;;;13.20;99.90;;;;;;5026747;28;20595;-74
2022/09/12 01:37:58;;;;;;;14.32;8.90;;;13.20;99.90;;;;;;5007793;28;20479;-74
2022/09/12 01:40:32;;;;;;;14.55;9.10;;;13.20;99.90;;;;;;5025197;28;20022;-74
2022/09/12 01:43:30;;;;;;;10.93;8.10;;;13.20;99.90;;;;;;5023580;28;20065;-74
2022/09/12 01:46:05;;;;;;;13.38;8.57;;;13.20;99.90;;;;;;5007623;28;20499;-74
2022/09/12 01:48:50;;;;;;;9.98;7.75;;;13.10;99.90;;;;;;5008651;28;20033;-74
2022/09/12 01:51:22;;;;;;;10.73;7.82;;;13.00;99.90;;;;;;5009059;28;20036;-74
2022/09/12 01:53:51;;;;;;;10.88;8.13;;;13.00;99.90;;;;;;5010003;28;20049;-74
2022/09/12 01:56:26;;;;;;;9.38;7.07;;;13.00;99.90;;;;;;5008265;28;20083;-73
2022/09/12 01:59:00;;;;;;;11.63;7.85;;;13.00;99.90;;;;;;5007051;28;20033;-73
2022/09/12 02:01:29;;;;;;;9.55;6.60;;;12.90;99.90;;;;;;5001225;28;20033;-72
2022/09/12 02:04:14;;;;;;;7.53;5.65;;;12.90;99.90;;;;;;5003405;28;20545;-73
2022/09/12 02:06:46;;;;;;;9.15;6.72;;;12.90;99.90;;;;;;5009239;28;20026;-73
2022/09/12 02:09:19;;;;;;;9.90;6.35;;;12.80;99.90;;;;;;5009456;28;20490;-73
2022/09/12 02:11:47;;;;;;;10.93;6.00;;;12.80;99.90;;;;;;5005012;28;20379;-74
2022/09/12 02:14:26;;;;;;;7.93;5.80;;;12.80;99.90;;;;;;5007478;28;20040;-72
2022/09/12 02:17:01;;;;;;;11.23;6.35;;;12.70;99.90;;;;;;5001842;28;20030;-73
2022/09/12 02:19:36;;;;;;;9.07;5.20;;;12.70;99.90;;;;;;5006943;28;20088;-73
2022/09/12 02:22:03;;;;;;;8.30;6.25;;;12.70;99.90;;;;;;5006174;28;20037;-73
2022/09/12 02:24:38;;;;;;;11.20;6.38;;;12.80;99.90;;;;;;5006291;28;20061;-73
2022/09/12 02:27:21;;;;;;;7.55;5.70;;;12.70;99.90;;;;;;5007859;28;20026;-73
2022/09/12 02:29:48;;;;;;;8.77;5.50;;;12.70;99.90;;;;;;5008471;28;20030;-73
2022/09/12 02:32:19;;;;;;;16.52;6.25;;;12.70;99.90;;;;;;5006619;28;20037;-76
2022/09/12 02:34:54;;;;;;;11.07;6.45;;;12.70;99.90;;;;;;5006783;28;20036;-72
2022/09/12 02:37:39;;;;;;;11.10;6.35;;;12.70;99.90;;;;;;5007886;28;20494;-73
2022/09/12 02:40:07;;;;;;;9.98;6.20;;;12.70;99.90;;;;;;5007865;28;20042;-73
2022/09/12 02:42:34;;;;;;;12.30;6.40;;;12.70;99.90;;;;;;5020016;28;20030;-73
2022/09/12 02:45:02;;;;;;;9.13;6.15;;;12.70;99.90;;;;;;5006933;28;20030;-73
2022/09/12 02:47:42;;;;;;;11.35;6.53;;;12.60;99.90;;;;;;5007216;28;20071;-73
2022/09/12 02:50:09;;;;;;;9.25;5.75;;;12.60;99.90;;;;;;5005116;28;20049;-73
2022/09/12 02:52:35;;;;;;;12.55;6.50;;;12.50;99.90;;;;;;5005528;28;20022;-73
2022/09/12 02:55:03;;;;;;;9.50;6.15;;;12.50;99.90;;;;;;5007079;28;20030;-74
2022/09/12 02:57:29;;;;;;;10.30;5.90;;;12.50;99.90;;;;;;5006225;28;20041;-73
2022/09/12 02:59:58;;;;;;;10.60;6.97;;;12.50;99.90;;;;;;5023845;28;20026;-74
2022/09/12 03:02:46;;;;;;;9.50;6.10;;;12.50;99.90;;;;;;5006184;28;20033;-73
2022/09/12 03:05:15;;;;;;;10.45;6.68;;;12.50;99.90;;;;;;5024027;28;20045;-73
2022/09/12 03:08:00;;;;;;;9.27;6.40;;;12.50;99.90;;;;;;5006865;28;21469;-74
2022/09/12 03:10:54;;;;;;;10.38;6.38;;;12.40;99.90;;;;;;5007247;28;20057;-73
2022/09/12 03:13:20;;;;;;;9.20;6.77;;;12.40;99.90;;;;;;5006227;28;20054;-74
2022/09/12 03:15:58;;;;;;;8.68;6.65;;;12.40;99.90;;;;;;5005003;28;20036;-75
2022/09/12 03:18:24;;;;;;;12.80;7.35;;;12.50;99.90;;;;;;5005152;28;20030;-75
2022/09/12 03:21:08;;;;;;;15.80;7.75;;;12.50;99.90;;;;;;5003949;28;20032;-75
2022/09/12 03:23:43;;;;;;;13.40;8.35;;;12.50;99.90;;;;;;5019814;28;20107;-73
2022/09/12 03:26:15;;;;;;;14.75;8.68;;;12.50;99.90;;;;;;5008488;28;20117;-74
2022/09/12 03:28:42;;;;;;;18.15;10.45;;;12.50;99.90;;;;;;5004410;28;20029;-74
2022/09/12 03:31:18;;;;;;;18.13;10.27;;;12.50;99.90;;;;;;5007973;28;20092;-73
2022/09/12 03:33:44;;;;;;;16.45;10.75;;;12.50;99.90;;;;;;5018475;28;20486;-74
2022/09/12 03:36:23;;;;;;;18.58;10.68;;;12.40;99.90;;;;;;5004695;28;20053;-74
2022/09/12 03:38:48;;;;;;;13.95;8.65;;;12.50;99.90;;;;;;5007846;28;20033;-74
2022/09/12 03:41:14;;;;;;;12.35;8.50;;;12.50;99.90;;;;;;5007207;28;20034;-74
2022/09/12 03:43:40;;;;;;;13.13;8.13;;;12.50;99.90;;;;;;5006803;28;20475;-74
2022/09/12 03:46:06;;;;;;;12.23;8.35;;;12.50;99.90;;;;;;5031504;23;20418;-73
2022/09/12 03:48:31;;;;;;;13.40;9.00;;;12.50;99.90;;;;;;5019148;28;20018;-74
2022/09/12 03:51:02;;;;;;;15.45;9.23;;;12.50;99.90;;;;;;5012860;28;20118;-73
2022/09/12 03:53:29;;;;;;;13.32;9.10;;;12.50;99.90;;;;;;5012516;28;20060;-73
2022/09/12 03:55:55;;;;;;;16.20;9.00;;;12.50;99.90;;;;;;4999452;28;20023;-74
2022/09/12 03:58:21;;;;;;;12.13;8.13;;;12.50;99.90;;;;;;5008377;28;20030;-74
2022/09/12 04:00:47;;;;;;;14.52;9.43;;;12.50;99.90;;;;;;5022475;28;20112;-74
2022/09/12 04:03:12;;;;;;;19.10;9.30;;;12.50;99.90;;;;;;5027555;28;20439;-74
2022/09/12 04:05:38;;;;;;;16.88;9.23;;;12.50;99.90;;;;;;5012168;28;20026;-74
2022/09/12 04:08:04;;;;;;;16.27;10.07;;;12.50;99.90;;;;;;5010916;28;20013;-74
2022/09/12 04:10:30;;;;;;;19.55;11.40;;;12.50;99.90;;;;;;5012188;28;20044;-74
2022/09/12 04:12:56;;;;;;;15.38;9.77;;;12.40;99.90;;;;;;5012519;28;20030;-74
2022/09/12 04:15:21;;;;;;;18.85;9.85;;;12.40;99.90;;;;;;5015542;28;20106;-74
2022/09/12 04:17:47;;;;;;;22.08;10.27;;;12.40;99.90;;;;;;5031786;28;20368;-74
2022/09/12 04:20:13;;;;;;;18.25;10.07;;;12.30;99.90;;;;;;5016650;28;20062;-74
2022/09/12 04:22:39;;;;;;;16.10;9.73;;;12.30;99.90;;;;;;5016368;28;20026;-74
2022/09/12 04:25:05;;;;;;;16.90;10.15;;;12.20;99.90;;;;;;5031339;28;20018;-74
2022/09/12 04:27:31;;;;;;;20.25;11.57;;;12.20;99.90;;;;;;5015341;28;20022;-74
2022/09/12 04:29:58;;;;;;;20.70;10.00;;;12.20;99.90;;;;;;5016418;28;20076;-74
2022/09/12 04:32:24;;;;;;;18.45;9.40;;;12.10;99.90;;;;;;5031050;28;20030;-74
2022/09/12 04:34:51;;;;;;;26.02;10.27;;;12.10;99.90;;;;;;5015784;28;20039;-74
2022/09/12 04:37:17;;;;;;;17.23;10.15;;;12.00;99.90;;;;;;5016599;28;20018;-74
2022/09/12 04:39:42;;;;;;;13.98;9.57;;;12.00;99.90;;;;;;4981798;28;20770;-71
2022/09/12 04:42:08;;;;;;;13.55;9.13;;;11.90;99.90;;;;;;5023627;28;20568;-71
2022/09/12 04:44:33;;;;;;;13.23;8.35;;;11.90;99.90;;;;;;5004846;28;20418;-71
2022/09/12 04:46:59;;;;;;;14.57;9.88;;;11.90;99.90;;;;;;5001871;28;20030;-71
2022/09/12 04:49:26;;;;;;;15.50;8.73;;;11.90;99.90;;;;;;5006319;28;20070;-73
2022/09/12 04:51:54;;;;;;;15.07;9.95;;;12.00;99.90;;;;;;5003738;28;20505;-72
2022/09/12 04:54:19;;;;;;;17.33;9.95;;;12.00;99.90;;;;;;5008996;28;20656;-71
2022/09/12 04:56:48;;;;;;;15.07;8.90;;;12.00;99.90;;;;;;5004610;28;20034;-71
2022/09/12 04:59:15;;;;;;;15.25;9.85;;;12.00;99.90;;;;;;5012220;28;20121;-71
2022/09/12 05:01:42;;;;;;;12.75;9.00;;;12.10;99.90;;;;;;5010485;28;20044;-71
2022/09/12 05:04:09;;;;;;;13.00;9.05;;;12.00;99.90;;;;;;5005934;28;20026;-72
2022/09/12 05:06:36;;;;;;;11.80;7.90;;;12.10;99.90;;;;;;5018420;28;20541;-71
2022/09/12 05:09:04;;;;;;;14.68;8.35;;;12.20;99.90;;;;;;4999605;28;20117;-71
2022/09/12 05:11:36;;;;;;;13.77;8.43;;;12.10;99.90;;;;;;5023292;28;20040;-71
2022/09/12 05:14:02;;;;;;;14.15;9.35;;;12.10;99.90;;;;;;5001532;28;20034;-71
2022/09/12 05:16:28;;;;;;;13.75;9.52;;;12.10;99.90;;;;;;5004916;28;20040;-71
2022/09/12 05:18:58;;;;;;;14.98;8.43;;;12.10;99.90;;;;;;5019618;28;20410;-71
2022/09/12 05:21:24;;;;;;;13.60;9.35;;;12.10;99.90;;;;;;5002225;28;20025;-71
2022/09/12 05:23:52;;;;;;;11.75;7.72;;;12.10;99.90;;;;;;5012142;28;20022;-75
2022/09/12 05:26:20;;;;;;;11.35;8.23;;;12.10;99.90;;;;;;5010829;28;20029;-75
2022/09/12 05:28:47;;;;;;;11.13;7.50;;;12.10;99.90;;;;;;5030838;28;20017;-75
2022/09/12 05:31:12;;;;;;;11.30;7.45;;;12.10;99.90;;;;;;5021894;28;20024;-75
2022/09/12 05:33:40;;;;;;;10.95;7.43;;;12.20;99.90;;;;;;5030440;28;20034;-75
2022/09/12 05:36:10;;;;;;;13.30;7.95;;;12.20;99.90;;;;;;5027788;28;20022;-75
2022/09/12 05:38:36;;;;;;;13.45;7.00;;;12.20;99.90;;;;;;5009643;28;20116;-75
2022/09/12 05:41:08;;;;;;;12.07;6.93;;;12.40;99.90;;;;;;5028075;28;20034;-75
2022/09/12 05:43:35;;;;;;;11.52;6.40;;;12.40;99.90;;;;;;5015377;28;20018;-75
2022/09/12 05:46:03;;;;;;;9.90;6.60;;;12.40;99.90;;;;;;5015086;28;20034;-75
2022/09/12 05:48:28;;;;;;;11.35;7.03;;;12.50;99.90;;;;;;5010840;28;20026;-74
2022/09/12 05:51:08;;;;;;;10.88;7.05;;;12.50;99.90;;;;;;5003511;28;20075;-73
2022/09/12 05:53:35;;;;;;;9.25;6.57;;;12.60;99.90;;;;;;5006349;28;20052;-74
2022/09/12 05:56:05;;;;;;;11.18;6.18;;;12.70;99.90;;;;;;5007181;28;20022;-74
2022/09/12 05:58:31;;;;;;;10.52;5.95;;;12.70;99.90;;;;;;5005033;28;20022;-74
2022/09/12 06:01:02;;;;;;;10.32;6.25;;;12.80;99.90;;;;;;5018829;28;20025;-73
2022/09/12 06:03:28;;;;;;;9.00;5.95;;;12.80;99.90;;;;;;5021778;28;20034;-74
2022/09/12 06:05:53;;;;;;;10.68;5.93;;;12.90;99.90;;;;;;5004096;28;20026;-74
2022/09/12 06:08:19;;;;;;;8.57;6.15;;;12.90;99.90;;;;;;5009390;28;20474;-74
2022/09/12 06:10:44;;;;;;;8.60;5.50;;;12.90;99.90;;;;;;5007110;28;20057;-76
2022/09/12 06:13:10;;;;;;;9.80;6.40;;;13.00;99.90;;;;;;5014421;28;20030;-76
2022/09/12 06:15:36;;;;;;;16.45;8.43;;;13.00;99.90;;;;;;5021949;28;20120;-74
2022/09/12 06:18:02;;;;;;;17.50;9.60;;;13.10;99.90;;;;;;5006444;28;20113;-74
2022/09/12 06:20:27;;;;;;;23.52;10.27;;;13.10;99.90;;;;;;5024864;28;20116;-75
2022/09/12 06:22:53;;;;;;;17.08;8.77;;;13.20;99.90;;;;;;5007115;28;20029;-75
2022/09/12 06:25:19;;;;;;;17.58;9.13;;;13.20;99.90;;;;;;5011794;28;20549;-75
2022/09/12 06:27:46;;;;;;;13.75;9.35;;;13.20;99.90;;;;;;5027428;28;20025;-76
2022/09/12 06:30:12;;;;;;;13.65;8.45;;;13.30;99.90;;;;;;5014808;28;20463;-75
2022/09/12 06:32:38;;;;;;;12.85;8.25;;;13.30;99.90;;;;;;5012487;28;20034;-76
2022/09/12 06:35:04;;;;;;;15.85;8.43;;;13.30;99.90;;;;;;5022323;28;20026;-75
2022/09/12 06:37:31;;;;;;;15.15;8.75;;;13.30;99.90;;;;;;5011864;28;20048;-75
2022/09/12 06:39:57;;;;;;;18.77;9.32;;;13.40;99.90;;;;;;5014008;28;20021;-76
2022/09/12 06:42:22;;;;;;;16.25;10.13;;;13.30;99.90;;;;;;5009564;28;20040;-76
2022/09/12 06:44:49;;;;;;;14.52;9.50;;;13.40;99.90;;;;;;5030868;28;20033;-76
2022/09/12 06:47:14;;;;;;;14.73;9.55;;;13.40;99.90;;;;;;5033869;28;20021;-76
2022/09/12 06:49:40;;;;;;;15.55;8.80;;;13.40;99.90;;;;;;5014686;28;20429;-76
2022/09/12 06:52:06;;;;;;;14.18;9.38;;;13.40;99.90;;;;;;5013735;28;20052;-76
2022/09/12 06:54:31;;;;;;;16.17;9.35;;;13.40;99.90;;;;;;4994507;28;20134;-75
2022/09/12 06:56:57;;;;;;;13.52;8.90;;;13.40;99.90;;;;;;4994780;28;20030;-75
2022/09/12 06:59:23;;;;;;;15.45;9.20;;;13.40;99.90;;;;;;4994724;28;20391;-75
2022/09/12 07:01:49;;;;;;;14.27;9.23;;;13.40;99.90;;;;;;4994192;28;20029;-75
2022/09/12 07:04:15;;;;;;;12.23;8.88;;;13.50;99.90;;;;;;4994864;28;20046;-75
2022/09/12 07:06:43;;;;;;;17.70;9.77;;;13.50;99.90;;;;;;4994412;28;20382;-75
2022/09/12 07:09:12;;;;;;;13.35;9.23;;;13.50;99.90;;;;;;4994880;28;20080;-75
2022/09/12 07:11:40;;;;;;;13.32;8.98;;;13.60;99.90;;;;;;4994285;28;20117;-75
2022/09/12 07:14:07;;;;;;;13.70;9.23;;;13.60;99.90;;;;;;4994650;28;20037;-75
2022/09/12 07:16:35;;;;;;;12.82;8.77;;;13.60;99.90;;;;;;4994497;28;20022;-75
2022/09/12 07:19:02;;;;;;;14.18;8.52;;;13.70;99.90;;;;;;4994473;28;20026;-75
2022/09/12 07:21:30;;;;;;;13.68;8.18;;;13.80;99.90;;;;;;4993169;28;20037;-75
2022/09/12 07:23:59;;;;;;;14.73;8.68;;;13.80;99.90;;;;;;4993300;28;20436;-74
2022/09/12 07:26:27;;;;;;;13.70;9.13;;;13.90;99.90;;;;;;4994695;28;20025;-75
2022/09/12 07:28:54;;;;;;;12.88;9.57;;;13.90;99.90;;;;;;4994415;28;20026;-75
2022/09/12 07:31:22;;;;;;;13.18;8.55;;;13.90;99.90;;;;;;4993538;28;20026;-75
2022/09/12 07:33:49;;;;;;;14.20;9.02;;;14.00;99.90;;;;;;4992727;28;20022;-75
2022/09/12 07:36:17;;;;;;;10.55;7.63;;;14.10;99.90;;;;;;4992768;28;20505;-76
2022/09/12 07:38:42;;;;;;;12.30;8.40;;;14.10;99.90;;;;;;5008372;28;20040;-77
2022/09/12 07:41:19;;;;;;;11.02;7.18;;;14.20;99.90;;;;;;5001251;28;20030;-77
2022/09/12 07:43:46;;;;;;;13.88;8.45;;;14.30;99.90;;;;;;4940855;28;20114;-77
2022/09/12 07:46:13;;;;;;;12.60;7.57;;;14.30;99.90;;;;;;5006844;28;20037;-77
2022/09/12 07:48:39;;;;;;;11.27;7.25;;;14.30;99.90;;;;;;5012186;28;20057;-77
2022/09/12 07:51:07;;;;;;;13.02;7.80;;;14.40;99.90;;;;;;5013150;28;20026;-79
2022/09/12 07:53:38;;;;;;;11.32;7.30;;;14.40;99.90;;;;;;5009874;28;20425;-78
2022/09/12 07:56:06;;;;;;;9.63;7.05;;;14.50;99.90;;;;;;5021544;28;20432;-78
2022/09/12 07:58:34;;;;;;;10.35;7.60;;;14.50;99.90;;;;;;5031807;28;20028;-78
2022/09/12 08:01:14;;;;;;;12.65;7.28;;;14.60;99.90;;;;;;5008714;28;20030;-79
2022/09/12 08:03:41;;;;;;;11.15;7.57;;;14.60;99.90;;;;;;5012115;28;20018;-78
2022/09/12 08:06:22;;;;;;;9.43;7.20;;;14.70;99.90;;;;;;5005298;28;20068;-77
2022/09/12 08:08:49;;;;;;;9.80;6.85;;;14.70;99.90;;;;;;5026524;28;20034;-78
2022/09/12 08:11:18;;;;;;;10.73;7.47;;;14.80;99.90;;;;;;5010295;28;20022;-77
2022/09/12 08:13:44;;;;;;;10.88;7.63;;;14.80;99.90;;;;;;5008360;28;20817;-77
2022/09/12 08:16:13;;;;;;;10.48;7.80;;;14.90;99.90;;;;;;5008182;28;20034;-77
2022/09/12 08:18:39;;;;;;;11.68;7.88;;;15.00;99.90;;;;;;5009069;28;20118;-78
2022/09/12 08:21:10;;;;;;;11.07;6.55;;;15.10;99.90;;;;;;5005258;28;20026;-77
2022/09/12 08:23:36;;;;;;;12.63;7.05;;;15.20;99.90;;;;;;5013113;28;20022;-77
2022/09/12 08:26:04;;;;;;;11.30;6.78;;;15.20;99.90;;;;;;5012289;28;20160;-77
2022/09/12 08:28:31;;;;;;;14.40;7.20;;;15.40;99.90;;;;;;5004939;28;20040;-78
2022/09/12 08:31:06;;;;;;;9.05;6.32;;;15.40;99.90;;;;;;5012874;28;20033;-78
2022/09/12 08:33:32;;;;;;;9.18;6.45;;;15.50;99.90;;;;;;5013309;28;20105;-78
2022/09/12 08:36:06;;;;;;;9.18;7.05;;;15.60;99.90;;;;;;5029895;28;20117;-78
2022/09/12 08:38:34;;;;;;;10.02;6.75;;;15.70;99.90;;;;;;5029751;28;20084;-77
2022/09/12 08:41:09;;;;;;;9.73;5.85;;;15.80;99.90;;;;;;5009922;28;20025;-78
2022/09/12 08:44:02;;;;;;;11.00;6.30;;;15.80;99.90;;;;;;5014366;28;20140;-77
2022/09/12 08:46:37;;;;;;;6.72;5.57;;;15.90;99.90;;;;;;5012481;28;20061;-78
2022/09/12 08:49:04;;;;;;;9.55;6.05;;;16.00;99.90;;;;;;5010340;28;20057;-78
2022/09/12 08:51:33;;;;;;;11.57;6.20;;;16.10;99.90;;;;;;5007389;28;20037;-78
2022/09/12 08:54:01;;;;;;;7.82;5.70;;;16.20;99.90;;;;;;5009984;28;20091;-77
2022/09/12 08:56:34;;;;;;;8.25;5.95;;;16.30;99.90;;;;;;5006510;28;20119;-77
2022/09/12 08:59:00;;;;;;;10.05;5.70;;;16.40;99.90;;;;;;5002408;28;20029;-78
2022/09/12 09:01:34;;;;;;;9.52;6.03;;;16.50;99.90;;;;;;5008550;28;20104;-78
2022/09/12 09:04:17;;;;;;;9.27;5.25;;;16.60;99.90;;;;;;5010024;28;20104;-78
2022/09/12 09:07:10;;;;;;;11.55;6.50;;;16.70;99.90;;;;;;5014460;28;20038;-78
2022/09/12 09:09:38;;;;;;;9.00;5.47;;;16.80;99.90;;;;;;5006128;28;20022;-77
2022/09/12 09:12:25;;;;;;;7.45;5.28;;;16.90;99.90;;;;;;5025276;28;20038;-76
2022/09/12 09:14:53;;;;;;;8.52;5.63;;;17.00;99.90;;;;;;5015439;28;20042;-76
2022/09/12 09:17:25;;;;;;;7.57;5.82;;;17.20;99.90;;;;;;5018248;28;20021;-77
2022/09/12 09:20:00;;;;;;;9.63;6.28;;;17.20;99.90;;;;;;5017354;28;20493;-77
2022/09/12 09:22:54;;;;;;;9.55;5.93;;;17.30;99.90;;;;;;5017025;28;20022;-77
2022/09/12 09:25:32;;;;;;;9.18;5.72;;;17.40;99.90;;;;;;5008817;28;20042;-78
2022/09/12 09:28:06;;;;;;;6.45;5.30;;;17.50;99.90;;;;;;5014945;28;20034;-77
2022/09/12 09:30:34;;;;;;;;;;;17.60;99.90;;;;;;5025048;28;20053;-78
2022/09/12 09:33:02;;;;;;;8.65;5.10;;;17.70;99.90;;;;;;5031914;28;19920;-77
2022/09/12 09:35:38;;;;;;;5.97;4.82;;;17.90;99.90;;;;;;5016948;28;20029;-77
2022/09/12 09:38:22;;;;;;;6.72;4.60;;;17.90;99.90;;;;;;5017711;28;20026;-76
2022/09/12 09:40:57;;;;;;;8.27;4.57;;;18.10;99.90;;;;;;5023822;28;20026;-77
2022/09/12 09:43:27;;;;;;;6.30;4.30;;;18.10;99.90;;;;;;5017128;28;20037;-77
2022/09/12 09:45:55;;;;;;;6.25;4.10;;;18.20;99.90;;;;;;5047978;23;20053;-72
2022/09/12 09:48:25;;;;;;;7.90;3.30;;;18.30;99.90;;;;;;5008912;28;20030;-72
2022/09/12 09:50:51;;;;;;;8.52;3.90;;;18.30;99.90;;;;;;5012383;28;20026;-72
2022/09/12 09:53:27;;;;;;;8.57;3.58;;;18.40;99.90;;;;;;5010982;28;20057;-72
2022/09/12 09:55:55;;;;;;;6.35;3.35;;;18.60;99.90;;;;;;5010328;28;20026;-72
2022/09/12 09:58:32;;;;;;;5.45;3.95;;;18.60;99.90;;;;;;5013378;28;20505;-73
2022/09/12 10:01:03;;;;;;;5.57;3.60;;;18.70;99.90;;;;;;5009652;28;20030;-73
2022/09/12 10:03:31;;;;;;;6.53;3.25;;;18.80;99.90;;;;;;5024528;28;20379;-73
2022/09/12 10:06:06;;;;;;;4.55;2.90;;;18.90;99.90;;;;;;5011252;28;20028;-74
2022/09/12 10:08:38;;;;;;;3.70;2.83;;;19.00;99.90;;;;;;5005060;28;20118;-73
2022/09/12 10:11:06;;;;;;;4.72;3.00;;;19.10;99.90;;;;;;5021943;28;20022;-73
2022/09/12 10:13:34;;;;;;;5.53;2.88;;;19.10;99.90;;;;;;5014742;28;20534;-73
2022/09/12 10:16:02;;;;;;;3.92;2.47;;;19.20;99.90;;;;;;5014460;28;20030;-73
2022/09/12 10:18:41;;;;;;;6.55;3.03;;;19.30;99.90;;;;;;5029298;28;20054;-73
2022/09/12 10:21:16;;;;;;;3.58;2.60;;;19.40;99.90;;;;;;5008350;28;20083;-73
2022/09/12 10:23:42;;;;;;;3.00;2.30;;;19.40;99.90;;;;;;5011620;28;20030;-73
2022/09/12 10:26:11;;;;;;;4.10;2.33;;;19.50;99.90;;;;;;5014215;28;20117;-73
2022/09/12 10:28:39;;;;;;;6.22;2.60;;;19.60;99.90;;;;;;5014722;28;20160;-73
2022/09/12 10:31:06;;;;;;;3.95;3.15;;;19.60;99.90;;;;;;5011509;28;20026;-74
2022/09/12 10:33:42;;;;;;;4.75;2.83;;;19.70;99.90;;;;;;5008203;28;20022;-74
2022/09/12 10:36:08;;;;;;;3.20;2.53;;;19.70;99.90;;;;;;5012047;28;20076;-73
2022/09/12 10:38:34;;;;;;;2.75;2.47;;;19.80;99.90;;;;;;5013550;28;20050;-72
2022/09/12 10:41:08;;;;;;;4.20;2.78;;;19.80;99.90;;;;;;4999493;28;20036;-73
2022/09/12 10:43:41;;;;;;;3.42;2.75;;;19.80;99.90;;;;;;5010116;28;20034;-73
2022/09/12 10:46:18;;;;;;;5.88;3.50;;;19.90;99.90;;;;;;5012553;28;20036;-73
2022/09/12 10:48:51;;;;;;;5.07;3.00;;;19.90;99.90;;;;;;5006035;28;20024;-73
2022/09/12 10:51:23;;;;;;;5.75;3.58;;;20.00;99.90;;;;;;5011661;28;20021;-73
2022/09/12 10:53:52;;;;;;;5.35;3.60;;;20.00;99.90;;;;;;5012911;28;20028;-73
2022/09/12 10:56:21;;;;;;;5.78;3.17;;;20.10;99.90;;;;;;5012621;28;20076;-73
2022/09/12 10:58:52;;;;;;;6.10;3.78;;;20.10;99.90;;;;;;5034723;28;20402;-73
2022/09/12 11:01:30;;;;;;;6.15;3.17;;;20.10;99.90;;;;;;5012750;28;20022;-73
2022/09/12 11:04:34;;;;;;;4.05;3.65;;;20.20;99.90;;;;;;5045290;28;20550;-73
2022/09/12 11:07:18;;;;;;;4.78;3.28;;;20.30;99.90;;;;;;4988648;28;20038;-74
2022/09/12 11:09:44;;;;;;;6.22;2.80;;;20.40;99.90;;;;;;5012925;28;20045;-74
2022/09/12 11:12:15;;;;;;;3.70;2.92;;;20.40;99.90;;;;;;5011327;28;20022;-73
2022/09/12 11:15:19;;;;;;;3.75;2.53;;;20.60;99.90;;;;;;5025265;28;20116;-73
2022/09/12 11:17:57;;;;;;;2.97;2.22;;;20.60;99.90;;;;;;4979333;28;20121;-74
2022/09/12 11:20:42;;;;;;;6.50;2.70;;;20.80;99.90;;;;;;5009540;28;20367;-73
2022/09/12 11:23:16;;;;;;;1.55;1.45;;;20.90;99.90;;;;;;5008096;28;20121;-73
2022/09/12 11:25:57;;;;;;;2.67;2.17;;;20.90;99.90;;;;;;5012365;28;20029;-73
2022/09/12 11:28:44;;;;;;;3.45;2.40;;;20.90;99.90;;;;;;5014767;28;20034;-73
2022/09/12 11:31:31;;;;;;;2.58;2.00;;;21.00;99.90;;;;;;5000433;28;20014;-72
2022/09/12 11:34:01;;;;;;;2.45;1.80;;;21.10;99.90;;;;;;5007208;28;20029;-73
2022/09/12 11:36:41;;;;;;;4.22;1.73;;;21.10;99.90;;;;;;5010669;28;20025;-73
2022/09/12 11:39:30;;;;;;;3.40;1.85;;;21.10;99.90;;;;;;5007896;28;20022;-72
2022/09/12 11:42:01;;;;;;;1.23;0.95;;;21.20;99.90;;;;;;5003007;28;20108;-73
2022/09/12 11:44:41;;;;;;;2.17;1.25;;;21.20;99.90;;;;;;5010970;28;20079;-73
2022/09/12 11:47:11;;;;;;;2.58;1.42;;;21.30;98.60;;;;;;4998714;28;20081;-72
2022/09/12 11:49:47;;;;;;;1.90;1.00;;;21.30;97.50;;;;;;5006095;28;20046;-72
2022/09/12 11:52:15;;;;;;;2.97;1.02;;;21.30;97.10;;;;;;5014014;28;20025;-73
2022/09/12 11:55:02;;;;;;;4.35;1.00;;;21.40;95.80;;;;;;5012813;28;20068;-73
2022/09/12 11:57:38;;;;;;;4.38;0.90;;;21.40;93.90;;;;;;5020050;28;20113;-73
2022/09/12 12:00:09;;;;;;;1.48;0.90;;;21.40;93.40;;;;;;5007939;28;20619;-73
2022/09/12 12:03:06;;;;;;;1.70;0.90;;;21.50;92.90;;;;;;5007949;28;20216;-74
2022/09/12 12:05:44;;;;;;;1.08;0.88;;;21.60;92.10;;;;;;4982496;28;20042;-73
2022/09/12 12:08:11;;;;;;;2.47;0.80;;;21.60;92.10;;;;;;5017601;28;20030;-74
2022/09/12 12:10:49;;;;;;;1.42;0.90;;;21.70;91.80;;;;;;5008430;28;20022;-73
2022/09/12 12:13:30;;;;;;;1.52;0.80;;;21.70;91.30;;;;;;5023789;28;20026;-71
2022/09/12 12:16:12;;;;;;;2.13;0.80;;;21.70;91.20;;;;;;5014574;28;20075;-75
2022/09/12 12:18:39;;;;;;;1.70;0.80;;;21.80;90.70;;;;;;5015969;28;20061;-73
2022/09/12 12:21:20;;;;;;;1.63;1.17;;;21.80;90.90;;;;;;5012666;28;20096;-73
2022/09/12 12:24:12;;;;;;;5.97;1.13;;;21.80;90.10;;;;;;5010457;28;20026;-76
2022/09/12 12:26:37;;;;;;;2.97;0.85;;;21.80;90.70;;;;;;5010609;28;20046;-75
2022/09/12 12:29:03;;;;;;;1.45;0.85;;;21.80;90.10;;;;;;5007961;28;20021;-73
2022/09/12 12:31:30;;;;;;;2.00;0.80;;;21.90;89.50;;;;;;5011639;28;20030;-74
2022/09/12 12:34:02;;;;;;;1.20;0.75;;;21.90;88.70;;;;;;5008772;28;20122;-71
2022/09/12 12:36:30;;;;;;;1.20;0.90;;;21.90;87.30;;;;;;5009536;28;20506;-73
2022/09/12 12:38:55;;;;;;;2.33;0.90;;;21.90;87.60;;;;;;5033667;28;20033;-73
2022/09/12 12:41:22;;;;;;;3.47;0.93;;;22.00;86.70;;;;;;5011413;28;20034;-72
2022/09/12 12:43:54;;;;;;;0.88;0.50;;;22.00;84.70;;;;;;5014038;28;20038;-76
2022/09/12 12:46:23;;;;;;;2.05;1.33;;;22.00;83.60;;;;;;5007619;28;20037;-73
2022/09/12 12:48:51;;;;;;;2.03;0.70;;;22.00;84.10;;;;;;5005390;28;20069;-75
2022/09/12 12:51:32;;;;;;;2.85;0.88;;;22.00;84.40;;;;;;5008074;28;20025;-74
2022/09/12 12:54:00;;;;;;;1.70;0.70;;;22.00;84.20;;;;;;5023823;28;20028;-72
2022/09/12 12:56:26;;;;;;;1.33;0.70;;;22.00;84.40;;;;;;5013189;28;20022;-73
2022/09/12 12:59:10;;;;;;;1.23;0.80;;;22.00;83.50;;;;;;5012746;28;20429;-73